createdAt,value
2018-05-25T00:00:38.259Z,14.50
2018-05-25T00:03:07.684Z,14.30
2018-05-25T00:05:37.175Z,14.20
2018-05-25T00:08:05.643Z,14.30
2018-05-25T00:10:33.159Z,14.30
2018-05-25T00:13:00.671Z,14.30
2018-05-25T00:15:28.428Z,14.30
2018-05-25T00:17:57.630Z,14.30
2018-05-25T00:20:30.076Z,14.30
2018-05-25T00:22:57.584Z,14.30
2018-05-25T00:39:05.368Z,14.40
2018-05-25T00:41:34.849Z,14.30
2018-05-25T00:44:02.357Z,14.20
2018-05-25T00:46:30.796Z,14.30
2018-05-25T00:48:58.320Z,14.30
2018-05-25T00:51:25.857Z,14.20
2018-05-25T00:53:53.387Z,14.20
2018-05-25T00:56:20.891Z,14.10
2018-05-25T00:58:48.384Z,14.10
2018-05-25T01:01:16.908Z,14.10
2018-05-25T01:03:44.628Z,14.00
2018-05-25T01:06:13.073Z,13.80
2018-05-25T01:08:42.595Z,13.80
2018-05-25T01:11:11.023Z,13.70
2018-05-25T01:13:38.530Z,13.80
2018-05-25T01:16:07.062Z,13.70
2018-05-25T01:18:34.648Z,13.70
2018-05-25T01:21:03.879Z,13.60
2018-05-25T01:23:31.400Z,13.60
2018-05-25T01:25:58.886Z,13.70
2018-05-25T01:28:29.067Z,13.80
2018-05-25T01:30:57.526Z,13.80
2018-05-25T01:33:25.119Z,13.80
2018-05-25T01:35:53.544Z,13.80
2018-05-25T01:38:22.746Z,13.70
2018-05-25T01:40:50.293Z,13.70
2018-05-25T01:43:17.793Z,13.60
2018-05-25T01:45:45.409Z,13.60
2018-05-25T02:01:39.489Z,13.60
2018-05-25T02:04:07.805Z,13.70
2018-05-25T02:06:59.189Z,13.70
2018-05-25T02:09:26.720Z,13.80
2018-05-25T02:11:54.769Z,13.60
2018-05-25T02:14:22.277Z,13.20
2018-05-25T02:30:43.130Z,12.90
2018-05-25T02:33:10.624Z,12.80
2018-05-25T02:49:12.451Z,12.90
2018-05-25T02:51:59.836Z,12.80
2018-05-25T02:54:28.457Z,13.00
2018-05-25T02:56:55.980Z,12.90
2018-05-25T02:59:24.420Z,12.80
2018-05-25T03:01:55.940Z,12.70
2018-05-25T03:04:25.400Z,12.60
2018-05-25T03:06:52.901Z,12.60
2018-05-25T03:09:20.438Z,12.60
2018-05-25T03:11:47.927Z,12.60
2018-05-25T03:14:16.329Z,12.70
2018-05-25T03:16:44.616Z,12.70
2018-05-25T03:19:13.056Z,12.60
2018-05-25T03:21:42.455Z,12.60
2018-05-25T03:24:09.971Z,12.60
2018-05-25T03:26:57.079Z,12.50
2018-05-25T03:29:24.615Z,12.50
2018-05-25T03:45:19.177Z,12.80
2018-05-25T03:47:47.691Z,12.70
2018-05-25T03:50:15.218Z,12.70
2018-05-25T03:52:42.743Z,12.70
2018-05-25T03:55:12.201Z,12.80
2018-05-25T03:57:40.717Z,12.80
2018-05-25T04:00:20.981Z,12.70
2018-05-25T04:02:48.492Z,12.70
2018-05-25T04:05:15.993Z,12.80
2018-05-25T04:08:03.156Z,13.10
2018-05-25T04:10:30.660Z,13.10
2018-05-25T04:12:58.160Z,13.20
2018-05-25T04:28:57.556Z,15.70
2018-05-25T04:31:25.972Z,16.00
2018-05-25T04:33:54.392Z,16.50
2018-05-25T04:36:21.902Z,16.80
2018-05-25T04:38:51.336Z,17.30
2018-05-25T04:41:37.755Z,17.10
2018-05-25T04:44:06.933Z,18.00
2018-05-25T04:46:34.498Z,18.00
2018-05-25T04:49:02.074Z,18.40
2018-05-25T04:51:30.356Z,18.90
2018-05-25T04:53:59.560Z,19.30
2018-05-25T04:56:27.948Z,19.50
2018-05-25T04:58:56.207Z,19.40
2018-05-25T05:01:23.714Z,19.40
2018-05-25T05:03:52.220Z,19.70
2018-05-25T05:06:20.646Z,20.00
2018-05-25T05:08:48.176Z,20.30
2018-05-25T05:11:15.707Z,20.70
2018-05-25T05:13:43.267Z,20.80
2018-05-25T05:16:10.825Z,21.40
2018-05-25T05:18:57.134Z,21.10
2018-05-25T05:21:27.624Z,20.80
2018-05-25T05:23:56.114Z,21.10
2018-05-25T05:26:24.560Z,20.70
2018-05-25T05:28:52.984Z,20.90
2018-05-25T05:31:20.519Z,20.60
2018-05-25T05:34:06.887Z,20.30
2018-05-25T05:36:35.303Z,19.50
2018-05-25T05:52:13.107Z,17.20
2018-05-25T05:54:41.599Z,17.20
2018-05-25T05:57:09.095Z,17.10
2018-05-25T05:59:38.635Z,17.20
2018-05-25T06:02:07.103Z,17.20
2018-05-25T06:04:34.643Z,17.10
2018-05-25T06:07:02.271Z,17.00
2018-05-25T06:09:29.799Z,16.90
2018-05-25T06:11:57.341Z,17.00
2018-05-25T06:14:24.870Z,17.10
2018-05-25T06:16:54.297Z,17.00
2018-05-25T06:19:22.625Z,16.90
2018-05-25T06:21:52.223Z,16.90
2018-05-25T06:24:20.663Z,16.90
2018-05-25T06:26:48.172Z,16.90
2018-05-25T06:29:16.620Z,17.00
2018-05-25T06:31:44.907Z,18.30
2018-05-25T06:34:14.099Z,18.90
2018-05-25T06:37:03.279Z,19.20
2018-05-25T06:39:30.788Z,19.20
2018-05-25T06:55:30.906Z,20.80
2018-05-25T06:57:58.422Z,21.20
2018-05-25T07:00:25.925Z,21.30
2018-05-25T07:02:53.439Z,21.20
2018-05-25T07:08:01.426Z,20.50
2018-05-25T07:10:49.475Z,20.40
2018-05-25T07:13:17.018Z,20.30
2018-05-25T07:15:44.548Z,20.20
2018-05-25T07:31:19.451Z,18.80
2018-05-25T07:33:47.905Z,18.90
2018-05-25T07:36:15.410Z,18.90
2018-05-25T07:38:42.932Z,19.30
2018-05-25T07:41:10.427Z,19.10
2018-05-25T07:43:37.957Z,19.00
2018-05-25T07:46:05.474Z,18.90
2018-05-25T07:48:32.985Z,19.00
2018-05-25T07:51:00.480Z,19.20
2018-05-25T07:53:28.074Z,19.20
2018-05-25T07:55:55.660Z,19.50
2018-05-25T07:58:23.955Z,19.70
2018-05-25T08:00:52.269Z,19.80
2018-05-25T08:03:20.677Z,19.70
2018-05-25T08:05:48.257Z,20.00
2018-05-25T08:08:15.778Z,20.20
2018-05-25T08:10:45.184Z,19.90
2018-05-25T08:13:13.618Z,19.90
2018-05-25T08:15:41.136Z,19.80
2018-05-25T08:18:08.639Z,19.80
2018-05-25T08:20:37.061Z,20.00
2018-05-25T08:23:05.355Z,20.30
2018-05-25T08:25:51.638Z,20.30
2018-05-25T08:28:19.181Z,20.50
2018-05-25T08:30:46.693Z,20.60
2018-05-25T08:33:14.211Z,20.30
2018-05-25T08:35:42.508Z,20.70
2018-05-25T08:51:19.551Z,21.10
2018-05-25T08:53:47.063Z,21.10
2018-05-25T08:56:14.709Z,21.00
2018-05-25T08:58:42.356Z,20.80
2018-05-25T09:01:09.912Z,20.90
2018-05-25T09:03:39.128Z,20.70
2018-05-25T09:06:07.457Z,20.50
2018-05-25T09:08:34.999Z,20.50
2018-05-25T09:11:03.535Z,21.00
2018-05-25T09:13:31.215Z,20.80
2018-05-25T09:16:16.621Z,20.80
2018-05-25T09:18:44.143Z,21.20
2018-05-25T09:21:13.992Z,21.60
2018-05-25T09:37:06.887Z,21.80
2018-05-25T09:39:34.380Z,21.60
2018-05-25T09:42:02.652Z,21.80
2018-05-25T09:44:31.535Z,22.10
2018-05-25T09:46:59.025Z,22.10
2018-05-25T09:49:28.494Z,22.40
2018-05-25T09:51:56.047Z,22.10
2018-05-25T09:54:23.522Z,22.10
2018-05-25T09:57:01.859Z,22.50
2018-05-25T09:59:31.064Z,22.80
2018-05-25T10:05:08.130Z,22.50
2018-05-25T10:07:41.958Z,22.40
2018-05-25T10:13:20.697Z,22.80
2018-05-25T10:15:48.256Z,23.00
2018-05-25T10:18:15.869Z,22.90
2018-05-25T10:20:43.999Z,22.90
2018-05-25T10:23:12.667Z,22.70
2018-05-25T10:25:40.176Z,22.60
2018-05-25T10:28:08.665Z,22.80
2018-05-25T10:30:36.176Z,23.30
2018-05-25T10:33:03.709Z,23.30
2018-05-25T10:35:31.334Z,23.30
2018-05-25T10:37:58.857Z,23.10
2018-05-25T10:40:26.399Z,23.20
2018-05-25T10:43:12.624Z,23.20
2018-05-25T10:45:40.935Z,23.30
2018-05-25T10:48:08.443Z,23.30
2018-05-25T10:53:19.668Z,23.20
2018-05-25T10:55:47.305Z,23.10
2018-05-25T10:58:15.463Z,23.20
2018-05-25T11:00:43.051Z,23.30
2018-05-25T11:03:10.627Z,23.40
2018-05-25T11:05:40.580Z,23.70
2018-05-25T11:08:08.683Z,23.70
2018-05-25T11:10:37.158Z,23.50
2018-05-25T11:13:04.676Z,23.70
2018-05-25T11:15:33.020Z,23.50
2018-05-25T11:18:00.555Z,23.40
2018-05-25T11:20:28.063Z,24.00
2018-05-25T11:22:56.427Z,24.20
2018-05-25T11:25:24.275Z,24.00
2018-05-25T11:27:51.838Z,23.60
2018-05-25T11:30:19.375Z,23.50
2018-05-25T11:32:47.015Z,23.60
2018-05-25T11:35:33.885Z,23.60
2018-05-25T11:38:02.337Z,23.70
2018-05-25T11:40:29.918Z,23.90
2018-05-25T11:42:57.486Z,23.70
2018-05-25T11:45:25.486Z,24.10
2018-05-25T11:47:54.752Z,24.20
2018-05-25T11:50:22.371Z,24.50
2018-05-25T11:52:51.184Z,24.40
2018-05-25T11:55:18.863Z,24.20
2018-05-25T11:57:46.493Z,24.50
2018-05-25T12:00:14.952Z,24.10
2018-05-25T12:02:43.515Z,24.20
2018-05-25T12:05:11.056Z,24.30
2018-05-25T12:07:39.731Z,24.30
2018-05-25T12:10:07.304Z,24.50
2018-05-25T12:12:34.898Z,24.50
2018-05-25T12:15:03.493Z,24.90
2018-05-25T12:17:31.844Z,24.80
2018-05-25T12:19:59.653Z,24.80
2018-05-25T12:22:27.277Z,24.60
2018-05-25T12:24:54.946Z,24.80
2018-05-25T12:27:23.192Z,24.90
2018-05-25T12:29:50.758Z,24.80
2018-05-25T12:32:18.620Z,24.80
2018-05-25T12:34:47.124Z,24.50
2018-05-25T12:37:14.754Z,24.60
2018-05-25T12:39:43.085Z,24.40
2018-05-25T12:42:10.673Z,24.40
2018-05-25T12:44:49.881Z,24.80
2018-05-25T12:47:18.322Z,24.80
2018-05-25T12:49:47.150Z,24.90
2018-05-25T12:52:14.748Z,24.90
2018-05-25T12:54:43.578Z,25.20
2018-05-25T12:57:11.914Z,25.00
2018-05-25T12:59:39.477Z,25.00
2018-05-25T13:02:07.037Z,25.10
2018-05-25T13:04:34.654Z,24.90
2018-05-25T13:07:02.427Z,25.10
2018-05-25T13:09:31.575Z,25.60
2018-05-25T13:11:59.227Z,25.60
2018-05-25T13:14:26.813Z,25.20
2018-05-25T13:16:54.364Z,24.90
2018-05-25T13:19:21.913Z,25.00
2018-05-25T13:21:50.389Z,25.10
2018-05-25T13:24:19.029Z,24.70
2018-05-25T13:26:46.610Z,24.60
2018-05-25T13:29:14.531Z,24.70
2018-05-25T13:31:42.867Z,24.90
2018-05-25T13:34:13.346Z,25.00
2018-05-25T13:36:41.082Z,25.00
2018-05-25T13:39:09.552Z,25.00
2018-05-25T13:41:38.936Z,25.00
2018-05-25T13:44:06.542Z,24.80
2018-05-25T13:46:35.189Z,24.60
2018-05-25T13:49:02.851Z,24.50
2018-05-25T13:51:30.793Z,24.60
2018-05-25T13:53:58.336Z,24.70
2018-05-25T13:56:26.670Z,24.80
2018-05-25T13:58:54.284Z,24.80
2018-05-25T14:01:21.872Z,24.80
2018-05-25T14:03:49.489Z,25.20
2018-05-25T14:06:17.165Z,25.20
2018-05-25T14:08:45.609Z,25.00
2018-05-25T14:11:13.177Z,25.10
2018-05-25T14:13:40.810Z,25.20
2018-05-25T14:16:08.380Z,25.00
2018-05-25T14:18:35.921Z,25.10
2018-05-25T14:21:03.530Z,25.10
2018-05-25T14:23:31.218Z,25.00
2018-05-25T14:25:58.777Z,24.90
2018-05-25T14:28:27.357Z,24.80
2018-05-25T14:30:55.846Z,25.00
2018-05-25T14:33:23.401Z,25.20
2018-05-25T14:35:51.010Z,24.90
2018-05-25T14:38:18.576Z,25.10
2018-05-25T14:40:47.027Z,25.10
2018-05-25T14:43:14.667Z,24.90
2018-05-25T14:45:42.979Z,25.30
2018-05-25T14:48:11.856Z,25.20
2018-05-25T14:50:39.515Z,25.10
2018-05-25T14:53:07.866Z,24.90
2018-05-25T14:55:35.442Z,24.80
2018-05-25T14:58:03.024Z,24.90
2018-05-25T15:00:30.582Z,25.00
2018-05-25T15:02:58.197Z,25.00
2018-05-25T15:05:25.820Z,25.00
2018-05-25T15:07:54.343Z,25.00
2018-05-25T15:10:21.933Z,25.30
2018-05-25T15:12:50.450Z,25.50
2018-05-25T15:15:20.692Z,25.10
2018-05-25T15:17:48.272Z,25.00
2018-05-25T15:20:15.873Z,25.10
2018-05-25T15:22:43.484Z,25.10
2018-05-25T15:25:12.039Z,25.30
2018-05-25T15:27:39.645Z,25.30
2018-05-25T15:30:07.250Z,25.20
2018-05-25T15:32:35.004Z,25.10
2018-05-25T15:35:02.454Z,25.10
2018-05-25T15:37:30.949Z,25.30
2018-05-25T15:39:58.566Z,25.50
2018-05-25T15:42:26.372Z,25.20
2018-05-25T15:44:53.984Z,25.20
2018-05-25T15:47:21.578Z,25.30
2018-05-25T15:49:49.284Z,25.30
2018-05-25T15:52:16.987Z,25.40
2018-05-25T15:54:45.486Z,25.60
2018-05-25T15:57:13.194Z,25.50
2018-05-25T15:59:40.800Z,25.30
2018-05-25T16:02:08.503Z,25.30
2018-05-25T16:04:36.014Z,25.50
2018-05-25T16:07:08.522Z,25.80
2018-05-25T16:09:36.111Z,25.80
2018-05-25T16:12:04.425Z,25.70
2018-05-25T16:14:31.939Z,25.60
2018-05-25T16:16:59.475Z,26.00
2018-05-25T16:19:27.064Z,26.00
2018-05-25T16:21:54.656Z,25.80
2018-05-25T16:24:22.226Z,25.80
2018-05-25T16:26:50.581Z,25.10
2018-05-25T16:29:18.480Z,25.10
2018-05-25T16:31:46.000Z,25.10
2018-05-25T16:34:13.580Z,25.20
2018-05-25T16:36:41.133Z,25.10
2018-05-25T16:39:08.692Z,25.00
2018-05-25T16:41:36.219Z,25.20
2018-05-25T16:44:05.160Z,25.30
2018-05-25T16:46:32.676Z,25.30
2018-05-25T16:49:01.034Z,25.30
2018-05-25T16:51:29.462Z,25.20
2018-05-25T16:53:56.973Z,25.30
2018-05-25T16:56:24.487Z,25.30
2018-05-25T16:58:53.015Z,25.30
2018-05-25T17:01:20.536Z,25.30
2018-05-25T17:03:48.899Z,25.30
2018-05-25T17:06:16.512Z,25.00
2018-05-25T17:08:44.250Z,25.10
2018-05-25T17:11:11.957Z,25.10
2018-05-25T17:13:39.538Z,25.30
2018-05-25T17:16:08.124Z,25.40
2018-05-25T17:18:35.835Z,25.70
2018-05-25T17:21:05.222Z,25.40
2018-05-25T17:23:33.590Z,25.10
2018-05-25T17:26:01.292Z,24.70
2018-05-25T17:28:28.992Z,24.70
2018-05-25T17:30:57.774Z,24.80
2018-05-25T17:33:26.195Z,24.90
2018-05-25T17:35:53.861Z,25.10
2018-05-25T17:38:21.435Z,25.40
2018-05-25T17:40:49.161Z,25.50
2018-05-25T17:43:17.407Z,25.50
2018-05-25T17:45:44.931Z,25.80
2018-05-25T17:48:12.633Z,26.00
2018-05-25T17:50:40.300Z,26.00
2018-05-25T17:53:09.128Z,25.80
2018-05-25T17:55:37.661Z,25.80
2018-05-25T17:58:05.353Z,25.70
2018-05-25T18:00:32.904Z,25.50
2018-05-25T18:03:00.678Z,25.30
2018-05-25T18:05:28.272Z,25.10
2018-05-25T18:10:55.328Z,24.60
2018-05-25T18:13:24.685Z,24.10
2018-05-25T18:15:53.918Z,24.10
2018-05-25T18:18:40.904Z,23.50
2018-05-25T18:23:56.376Z,23.30
2018-05-25T18:26:25.012Z,23.20
2018-05-25T18:28:53.569Z,22.90
2018-05-25T18:31:22.192Z,22.70
2018-05-25T18:33:49.925Z,22.40
2018-05-25T18:36:17.531Z,22.00
2018-05-25T18:38:45.171Z,21.70
2018-05-25T18:41:13.546Z,21.60
2018-05-25T18:43:41.257Z,21.50
2018-05-25T18:46:10.700Z,21.10
2018-05-25T18:48:39.224Z,20.80
2018-05-25T18:51:06.943Z,20.70
2018-05-25T18:53:35.333Z,20.60
2018-05-25T18:56:03.946Z,20.50
2018-05-25T18:58:31.560Z,20.20
2018-05-25T19:00:59.453Z,20.00
2018-05-25T19:03:27.299Z,20.00
2018-05-25T19:05:55.170Z,19.80
2018-05-25T19:08:23.649Z,19.50
2018-05-25T19:10:51.274Z,19.40
2018-05-25T19:13:18.920Z,19.30
2018-05-25T19:15:47.456Z,19.10
2018-05-25T19:18:15.225Z,19.10
2018-05-25T19:20:42.874Z,18.90
2018-05-25T19:23:12.575Z,18.80
2018-05-25T19:25:40.751Z,18.70
2018-05-25T19:28:08.969Z,18.60
2018-05-25T19:30:37.848Z,18.60
2018-05-25T19:33:27.291Z,18.60
2018-05-25T19:38:45.747Z,18.50
2018-05-25T19:41:15.727Z,18.40
2018-05-25T19:43:43.327Z,18.30
2018-05-25T19:46:11.114Z,18.20
2018-05-25T19:48:40.254Z,18.10
2018-05-25T19:51:08.258Z,18.00
2018-05-25T19:53:36.920Z,17.90
2018-05-25T19:56:04.832Z,17.80
2018-05-25T19:58:32.955Z,17.80
2018-05-25T20:01:00.529Z,18.00
2018-05-25T20:03:28.197Z,18.20
2018-05-25T20:05:58.559Z,18.50
2018-05-25T20:08:26.207Z,18.50
2018-05-25T20:13:59.499Z,18.30
2018-05-25T20:16:27.080Z,18.20
2018-05-25T20:18:55.819Z,18.20
2018-05-25T20:21:23.538Z,18.10
2018-05-25T20:23:51.115Z,18.00
2018-05-25T20:26:18.751Z,17.90
2018-05-25T20:28:46.689Z,17.60
2018-05-25T20:31:14.766Z,17.60
2018-05-25T20:33:43.882Z,17.40
2018-05-25T20:36:12.174Z,17.40
2018-05-25T20:38:40.315Z,17.30
2018-05-25T20:41:08.505Z,17.40
2018-05-25T20:43:36.997Z,17.10
2018-05-25T20:46:05.873Z,17.10
2018-05-25T20:48:33.715Z,17.00
2018-05-25T20:51:02.355Z,16.90
2018-05-25T20:53:30.947Z,16.80
2018-05-25T20:55:58.460Z,16.80
2018-05-25T20:58:26.072Z,16.90
2018-05-25T21:00:53.666Z,17.00
2018-05-25T21:03:21.238Z,17.00
2018-05-25T21:05:50.767Z,16.90
2018-05-25T21:08:19.227Z,16.80
2018-05-25T21:10:46.777Z,16.70
2018-05-25T21:13:15.262Z,16.60
2018-05-25T21:15:42.822Z,16.50
2018-05-25T21:18:19.060Z,16.50
2018-05-25T21:20:46.728Z,16.50
2018-05-25T21:23:14.438Z,16.50
2018-05-25T21:25:42.031Z,16.70
2018-05-25T21:28:09.857Z,16.70
2018-05-25T21:30:37.403Z,16.80
2018-05-25T21:33:05.106Z,16.80
2018-05-25T21:35:33.183Z,16.90
2018-05-25T21:38:00.748Z,16.90
2018-05-25T21:40:28.334Z,16.90
2018-05-25T21:42:56.812Z,16.70
2018-05-25T21:45:24.359Z,16.60
2018-05-25T21:47:51.965Z,16.50
2018-05-25T21:50:19.555Z,16.40
2018-05-25T21:52:48.782Z,16.50
2018-05-25T21:55:16.336Z,16.50
2018-05-25T21:57:44.002Z,16.50
2018-05-25T22:00:13.489Z,16.60
2018-05-25T22:02:41.759Z,16.60
2018-05-25T22:05:09.455Z,16.60
2018-05-25T22:07:37.025Z,16.60
2018-05-25T22:10:04.574Z,16.60
2018-05-25T22:12:32.860Z,16.50
2018-05-25T22:15:01.153Z,16.50
2018-05-25T22:17:28.673Z,16.50
2018-05-25T22:19:57.121Z,16.50
2018-05-25T22:22:24.667Z,16.40
2018-05-25T22:24:52.203Z,16.30
2018-05-25T22:27:21.817Z,16.20
2018-05-25T22:29:49.368Z,16.10
2018-05-25T22:32:16.887Z,16.10
2018-05-25T22:34:44.637Z,16.10
2018-05-25T22:37:13.158Z,16.10
2018-05-25T22:39:40.721Z,16.00
2018-05-25T22:42:07.765Z,15.90
2018-05-25T22:44:48.189Z,15.90
2018-05-25T22:47:28.471Z,15.90
2018-05-25T22:50:07.661Z,15.90
2018-05-25T22:52:40.411Z,16.00
2018-05-25T22:55:12.933Z,15.80
2018-05-25T22:57:40.467Z,15.80
2018-05-25T23:00:08.064Z,15.70
2018-05-25T23:02:38.280Z,15.60
2018-05-25T23:05:05.796Z,15.60
2018-05-25T23:07:33.414Z,15.60
2018-05-25T23:10:00.997Z,15.50
2018-05-25T23:12:28.594Z,15.60
2018-05-25T23:14:56.205Z,15.70
2018-05-25T23:17:23.727Z,15.80
2018-05-25T23:19:52.257Z,15.70
2018-05-25T23:22:20.736Z,15.60
2018-05-25T23:24:48.258Z,15.40
2018-05-25T23:27:15.779Z,15.40
2018-05-25T23:29:43.507Z,15.40
2018-05-25T23:32:11.927Z,15.30
2018-05-25T23:34:39.471Z,15.30
2018-05-25T23:37:07.085Z,15.30
2018-05-25T23:39:34.636Z,15.30
2018-05-25T23:42:02.171Z,15.30
2018-05-25T23:44:29.744Z,15.20
2018-05-25T23:46:57.310Z,15.00
2018-05-25T23:49:24.894Z,14.90
2018-05-25T23:51:52.411Z,15.00
2018-05-25T23:54:19.953Z,15.00
2018-05-25T23:56:47.480Z,15.00
2018-05-25T23:59:15.213Z,15.00
